Time,TemperatureF,DewpointF,PressureIn,WindDirection,WindDirectionDegrees,WindSpeedMPH,WindSpeedGustMPH,Humidity,HourlyPrecipIn,Conditions,Clouds,dailyrainin,SoftwareType,DateUTC
2013-08-24 00:13:00,75.0,66.0,30.11,East,90,5.0,-999.0,73,-99.99,,,-99.99,,2013-08-24 05:13:00,
2013-08-24 00:23:00,75.0,66.0,30.11,East,100,3.0,-999.0,73,-99.99,,,-99.99,,2013-08-24 05:23:00,
2013-08-24 00:53:00,75.0,66.0,30.13,ESE,110,3.0,-999.0,73,-99.99,,,-99.99,,2013-08-24 05:53:00,
2013-08-24 01:12:00,75.0,66.0,30.13,East,100,5.0,-999.0,73,-99.99,,,-99.99,,2013-08-24 06:12:00,
2013-08-24 01:22:00,75.0,66.0,30.13,ESE,120,3.0,-999.0,73,-99.99,,,-99.99,,2013-08-24 06:22:00,
2013-08-24 01:52:00,75.0,66.0,30.13,ESE,120,5.0,-999.0,73,-99.99,,,-99.99,,2013-08-24 06:52:00,
2013-08-24 02:12:00,75.0,66.0,30.13,SE,130,3.0,-999.0,73,-99.99,,,-99.99,,2013-08-24 07:12:00,
2013-08-24 02:22:00,73.0,64.0,30.13,SE,140,3.0,-999.0,73,-99.99,,,-99.99,,2013-08-24 07:22:00,
2013-08-24 02:53:00,73.0,64.0,30.14,ESE,120,3.0,-999.0,73,-99.99,,,-99.99,,2013-08-24 07:53:00,
2013-08-24 03:12:00,73.0,64.0,30.14,ESE,110,3.0,-999.0,73,-99.99,,,-99.99,,2013-08-24 08:12:00,
2013-08-24 03:22:00,73.0,64.0,30.14,ESE,110,3.0,-999.0,73,-99.99,,,-99.99,,2013-08-24 08:22:00,
2013-08-24 03:52:00,72.0,64.0,30.15,North,0,0.0,-999.0,78,-99.99,,,-99.99,,2013-08-24 08:52:00,
2013-08-24 04:11:00,72.0,64.0,30.15,East,100,3.0,-999.0,78,-99.99,,,-99.99,,2013-08-24 09:11:00,
2013-08-24 04:22:00,72.0,66.0,30.15,North,0,0.0,-999.0,83,-99.99,,,-99.99,,2013-08-24 09:22:00,
2013-08-24 04:53:00,70.0,66.0,30.16,ESE,120,3.0,-999.0,88,-99.99,,,-99.99,,2013-08-24 09:53:00,
2013-08-24 05:13:00,72.0,66.0,30.16,ESE,120,5.0,-999.0,83,-99.99,,,-99.99,,2013-08-24 10:13:00,
2013-08-24 05:23:00,72.0,66.0,30.16,ESE,120,3.0,-999.0,83,-99.99,,,-99.99,,2013-08-24 10:23:00,
2013-08-24 05:53:00,70.0,66.0,30.17,ESE,110,5.0,-999.0,88,-99.99,,,-99.99,,2013-08-24 10:53:00,
2013-08-24 06:12:00,72.0,66.0,30.17,ESE,120,3.0,-999.0,83,-99.99,,,-99.99,,2013-08-24 11:12:00,
2013-08-24 06:22:00,70.0,66.0,30.18,ESE,120,3.0,-999.0,88,-99.99,,,-99.99,,2013-08-24 11:22:00,
2013-08-24 06:52:00,70.0,66.0,30.19,ESE,120,5.0,-999.0,88,-99.99,,,-99.99,,2013-08-24 11:52:00,
2013-08-24 07:12:00,70.0,66.0,30.19,ESE,110,5.0,-999.0,88,-99.99,,,-99.99,,2013-08-24 12:12:00,
2013-08-24 07:21:00,72.0,66.0,30.19,ESE,110,5.0,-999.0,83,-99.99,,,-99.99,,2013-08-24 12:21:00,
2013-08-24 07:52:00,73.0,68.0,30.20,ESE,120,5.0,-999.0,83,-99.99,,,-99.99,,2013-08-24 12:52:00,
2013-08-24 08:11:00,73.0,68.0,30.20,ESE,120,5.0,-999.0,83,-99.99,,,-99.99,,2013-08-24 13:11:00,
2013-08-24 08:22:00,75.0,68.0,30.21,SSE,150,3.0,-999.0,78,-99.99,,,-99.99,,2013-08-24 13:22:00,
2013-08-24 08:52:00,77.0,66.0,30.21,SSE,160,6.0,-999.0,69,-99.99,,,-99.99,,2013-08-24 13:52:00,
2013-08-24 09:11:00,79.0,66.0,30.21,SSE,150,7.0,-999.0,65,-99.99,,,-99.99,,2013-08-24 14:11:00,
2013-08-24 09:52:00,81.0,66.0,30.22,SSE,160,6.0,-999.0,61,-99.99,,,-99.99,,2013-08-24 14:52:00,
2013-08-24 10:12:00,82.0,66.0,30.22,SSE,150,8.0,-999.0,58,-99.99,,,-99.99,,2013-08-24 15:12:00,
2013-08-24 10:22:00,84.0,66.0,30.22,South,190,9.0,-999.0,54,-99.99,,,-99.99,,2013-08-24 15:22:00,
2013-08-24 10:54:00,84.0,66.0,30.22,South,170,8.0,-999.0,54,-99.99,,,-99.99,,2013-08-24 15:54:00,
2013-08-24 11:13:00,86.0,66.0,30.22,South,180,6.0,-999.0,51,-99.99,,,-99.99,,2013-08-24 16:13:00,
2013-08-24 11:23:00,88.0,66.0,30.22,South,180,6.0,-999.0,48,-99.99,,,-99.99,,2013-08-24 16:23:00,
2013-08-24 11:53:00,88.0,66.0,30.21,SE,140,5.0,-999.0,48,-99.99,,,-99.99,,2013-08-24 16:53:00,
2013-08-24 12:12:00,90.0,66.0,30.21,SE,140,7.0,-999.0,46,-99.99,,,-99.99,,2013-08-24 17:12:00,
2013-08-24 12:23:00,90.0,64.0,30.21,ESE,120,5.0,-999.0,43,-99.99,,,-99.99,,2013-08-24 17:23:00,
2013-08-24 12:52:00,90.0,64.0,30.20,SSE,160,7.0,-999.0,43,-99.99,,,-99.99,,2013-08-24 17:52:00,
2013-08-24 14:52:00,90.0,64.0,30.19,East,80,6.0,-999.0,43,-99.99,,,-99.99,,2013-08-24 19:52:00,
2013-08-24 15:11:00,91.0,64.0,30.18,East,90,6.0,-999.0,40,-99.99,,,-99.99,,2013-08-24 20:11:00,
2013-08-24 15:22:00,90.0,66.0,30.18,East,100,6.0,-999.0,46,-99.99,,,-99.99,,2013-08-24 20:22:00,
2013-08-24 15:52:00,91.0,64.0,30.16,East,90,6.0,-999.0,40,-99.99,,,-99.99,,2013-08-24 20:52:00,
2013-08-24 16:11:00,91.0,64.0,30.16,East,90,7.0,-999.0,40,-99.99,,,-99.99,,2013-08-24 21:11:00,
2013-08-24 16:22:00,93.0,63.0,30.16,ESE,110,7.0,-999.0,36,-99.99,,,-99.99,,2013-08-24 21:22:00,
2013-08-24 16:55:00,93.0,63.0,30.16,East,90,8.0,-999.0,36,-99.99,,,-99.99,,2013-08-24 21:55:00,
2013-08-24 17:14:00,93.0,63.0,30.16,East,100,5.0,-999.0,36,-99.99,,,-99.99,,2013-08-24 22:14:00,
2013-08-24 17:23:00,91.0,63.0,30.16,ESE,110,6.0,-999.0,38,-99.99,,,-99.99,,2013-08-24 22:23:00,
2013-08-24 17:53:00,90.0,63.0,30.16,ESE,110,6.0,-999.0,40,-99.99,,,-99.99,,2013-08-24 22:53:00,
2013-08-24 18:12:00,90.0,63.0,30.15,East,100,7.0,-999.0,40,-99.99,,,-99.99,,2013-08-24 23:12:00,
2013-08-24 18:22:00,90.0,63.0,30.15,ESE,110,7.0,-999.0,40,-99.99,,,-99.99,,2013-08-24 23:22:00,
2013-08-24 18:53:00,86.0,64.0,30.14,ESE,120,6.0,-999.0,48,-99.99,,,-99.99,,2013-08-24 23:53:00,
2013-08-24 19:11:00,86.0,64.0,30.14,ESE,120,5.0,-999.0,48,-99.99,,,-99.99,,2013-08-25 00:11:00,
2013-08-24 19:22:00,84.0,64.0,30.14,ESE,120,6.0,-999.0,51,-99.99,,,-99.99,,2013-08-25 00:22:00,
2013-08-24 19:52:00,84.0,64.0,30.14,SE,130,7.0,-999.0,51,-99.99,,,-99.99,,2013-08-25 00:52:00,
2013-08-24 20:11:00,82.0,64.0,30.14,ESE,120,7.0,-999.0,54,-99.99,,,-99.99,,2013-08-25 01:11:00,
2013-08-24 20:22:00,82.0,63.0,30.15,ESE,120,6.0,-999.0,51,-99.99,,,-99.99,,2013-08-25 01:22:00,
2013-08-24 20:52:00,81.0,63.0,30.15,ESE,120,6.0,-999.0,54,-99.99,,,-99.99,,2013-08-25 01:52:00,
2013-08-24 21:11:00,81.0,63.0,30.16,SE,130,5.0,-999.0,54,-99.99,,,-99.99,,2013-08-25 02:11:00,
2013-08-24 21:22:00,79.0,63.0,30.16,SE,130,5.0,-999.0,57,-99.99,,,-99.99,,2013-08-25 02:22:00,
2013-08-24 21:52:00,79.0,64.0,30.18,ESE,120,3.0,-999.0,61,-99.99,,,-99.99,,2013-08-25 02:52:00,
2013-08-24 22:11:00,79.0,64.0,30.18,SE,130,3.0,-999.0,61,-99.99,,,-99.99,,2013-08-25 03:11:00,
2013-08-24 22:23:00,79.0,64.0,30.19,SE,130,3.0,-999.0,61,-99.99,,,-99.99,,2013-08-25 03:23:00,
2013-08-24 22:54:00,77.0,64.0,30.19,SE,130,5.0,-999.0,65,-99.99,,,-99.99,,2013-08-25 03:54:00,
2013-08-24 23:02:00,-999.0,-99.9,30.19,SE,140,3.0,-999.0,-999,-99.99,,,-99.99,,2013-08-25 04:02:00,
2013-08-24 23:14:00,77.0,64.0,30.19,SE,140,3.0,-999.0,65,-99.99,,,-99.99,,2013-08-25 04:14:00,
2013-08-24 23:25:00,79.0,63.0,30.19,SE,140,6.0,-999.0,57,-99.99,,,-99.99,,2013-08-25 04:25:00,
2013-08-24 23:54:00,79.0,63.0,30.20,SSE,150,8.0,-999.0,57,-99.99,,,-99.99,,2013-08-25 04:54:00,